Terminal Aerodrome Forecast
Issued by NWS

Home | Current Version | Previous Version | Text Only | Print | Product List | Glossary On
Versions: 1 2 3 4 5 6 7 8 9 10 11 12 13 14 15
241
FTUS43 KMQT 141124
TAFCMX
TAF
KCMX 141124Z 1412/1512 20005KT P6SM FEW250
     FM141900 17009KT P6SM SCT200
     FM150300 18010KT P6SM OVC035
     FM150500 18010KT P6SM OVC030
     FM150600 19009KT P6SM -SN OVC028
     FM150900 19008KT 5SM -SN OVC020=

USA.gov is the U.S. government's official web portal to all federal, state and local government web resources and services.